Latest Weather Observations for Proserpine

IDQ60801

Issued at 10:02 pm EST Thursday 30 July 2015 (issued every 30 minutes, with the page automatically refreshed every 10 minutes)

About weather observations | Map of weather stations | Latest weather observations for QLD | Other Formats
Station Details ID: 033247 Name: PROSERPINE AIRPORT Lat: -20.49 Lon: 148.56 Height: 19.7 m
Data from the previous 72 hours. | See also: Recent months at Proserpine
Date/Time
EST
Temp
°C
App
Temp
°C
Dew
Point
Rel
Hum
%
Delta-T
°C
Wind Press
QNH
hPa
Press
MSL
hPa
Rain
since 9 am
mm
Dir
 
Spd
km/h
Gust
km/h
Spd
kts
Gust
kts
30/10:00pm 16.3 16.4 14.0 86 1.3 SSE 6 7 3 4 1023.6 1023.5 0.0
30/09:30pm 17.2 17.3 14.5 84 1.5 S 7 11 4 6 1023.6 1023.5 0.0
30/09:00pm 17.8 17.0 15.1 84 1.6 S 13 17 7 9 1023.2 1023.1 0.0
30/08:30pm 17.5 17.0 15.0 85 1.5 SSE 11 13 6 7 1022.9 1022.8 0.0
30/08:00pm 18.1 17.4 15.4 84 1.6 SE 13 15 7 8 1022.8 1022.7 0.0
30/07:30pm 18.8 18.0 15.1 79 2.2 SE 13 17 7 9 1022.4 1022.3 0.0
30/07:00pm 19.1 17.6 15.4 79 2.2 SE 17 24 9 13 1022.2 1022.1 0.0
30/06:30pm 19.4 17.1 15.7 79 2.2 ESE 22 32 12 17 1022.1 1022.0 0.0
30/06:00pm 20.2 17.5 15.6 75 2.7 ESE 24 37 13 20 1021.8 1021.7 0.0
30/05:30pm 20.6 18.1 15.2 71 3.2 ESE 22 30 12 16 1021.6 1021.5 0.0
30/05:00pm 20.8 18.1 14.7 68 3.6 ESE 22 32 12 17 1021.4 1021.3 0.0
30/04:30pm 21.6 18.2 14.7 65 4.1 ESE 26 39 14 21 1021.2 1021.1 0.0
30/04:00pm 22.6 19.5 14.4 60 4.8 ESE 24 33 13 18 1021.0 1020.9 0.0
30/03:30pm 23.2 20.3 15.0 60 4.9 ESE 24 35 13 19 1021.0 1020.9 0.0
30/03:00pm 22.8 19.0 14.6 60 4.8 ESE 28 39 15 21 1021.2 1021.1 0.0
30/02:30pm 23.1 19.3 14.7 59 5.0 ESE 28 43 15 23 1021.4 1021.3 0.0
30/02:00pm 23.4 20.4 14.7 58 5.1 ESE 24 37 13 20 1021.6 1021.5 0.0
30/01:30pm 23.1 19.6 14.4 58 5.1 ESE 26 37 14 20 1021.9 1021.8 0.0
30/01:00pm 23.4 19.4 14.1 56 5.4 ESE 28 37 15 20 1022.1 1022.0 0.0
30/12:30pm 23.4 19.2 14.7 58 5.2 ESE 30 41 16 22 1022.7 1022.6 0.0
30/12:00pm 22.7 18.8 14.5 60 4.8 ESE 28 39 15 21 1023.4 1023.3 0.0
30/11:30am 22.7 18.8 14.3 59 4.9 ESE 28 41 15 22 1023.7 1023.6 0.0
30/11:00am 23.1 18.4 14.9 60 4.9 SE 33 43 18 23 1023.9 1023.8 0.0
30/10:30am 22.0 17.2 13.9 60 4.7 SE 32 43 17 23 1024.3 1024.2 0.0
30/10:00am 22.1 17.8 14.5 62 4.4 SE 30 41 16 22 1024.5 1024.4 0.0
30/09:30am 21.6 18.1 14.5 64 4.2 SE 26 39 14 21 1024.5 1024.4 0.0
30/09:00am 21.1 19.0 14.7 67 3.7 SE 19 32 10 17 1024.3 1024.2 0.0
30/08:30am 18.6 16.1 14.1 75 2.6 SSE 20 24 11 13 1024.1 1024.0 0.0
30/08:00am 18.4 16.6 14.5 78 2.2 SSE 17 20 9 11 1023.8 1023.7 0.0
30/07:30am 16.8 16.1 14.4 86 1.4 S 11 13 6 7 1023.7 1023.6 0.0
30/07:00am 15.7 14.9 13.9 89 1.0 S 11 15 6 8 1023.6 1023.5 0.0
30/06:30am 15.4 14.0 13.4 88 1.1 S 13 17 7 9 1023.2 1023.1 0.0
30/06:00am 15.5 14.1 13.5 88 1.1 S 13 19 7 10 1023.1 1023.0 0.0
30/05:30am 15.5 14.1 13.5 88 1.1 S 13 17 7 9 1022.8 1022.7 0.0
30/05:00am 15.5 14.1 13.5 88 1.1 S 13 17 7 9 1022.7 1022.6 0.0
30/04:30am 15.9 14.6 13.7 87 1.2 S 13 19 7 10 1022.7 1022.6 0.0
30/04:00am 16.0 14.7 13.8 87 1.2 S 13 19 7 10 1022.6 1022.5 0.0
30/03:30am 16.2 14.6 14.0 87 1.2 S 15 19 8 10 1023.0 1022.9 0.0
30/03:00am 16.5 15.4 14.2 86 1.3 S 13 17 7 9 1023.0 1022.9 0.0
30/02:30am 17.3 15.6 14.6 84 1.6 SSE 17 22 9 12 1023.2 1023.1 0.0
30/02:00am 17.0 15.6 14.6 86 1.4 SSE 15 20 8 11 1023.6 1023.5 0.0
30/01:30am 16.9 15.1 14.5 86 1.4 SSE 17 26 9 14 1023.9 1023.8 0.0
30/01:00am 16.9 14.8 14.7 87 1.3 SSE 19 26 10 14 1024.2 1024.1 0.0
30/12:30am 16.1 14.9 13.9 87 1.2 S 13 17 7 9 1024.5 1024.4 0.0
30/12:00am 16.6 15.4 14.1 85 1.4 S 13 20 7 11 1024.8 1024.7 0.0
 
Date/Time
EST
Temp
°C
App
Temp
°C
Dew
Point
Rel
Hum
%
Delta-T
°C
Wind Press
QNH
hPa
Press
MSL
hPa
Rain
since 9 am
mm
Dir
 
Spd
km/h
Gust
km/h
Spd
kts
Gust
kts
29/11:30pm 16.4 15.2 14.1 86 1.3 S 13 17 7 9 1024.9 1024.8 0.0
29/11:00pm 16.5 15.8 14.2 86 1.3 S 11 15 6 8 1025.0 1024.9 0.0
29/10:30pm 16.5 15.7 14.0 85 1.4 S 11 17 6 9 1025.3 1025.2 0.0
29/10:00pm 16.9 15.3 14.0 83 1.6 SSE 15 19 8 10 1025.4 1025.3 0.0
29/09:30pm 17.3 15.8 14.2 82 1.8 SSE 15 20 8 11 1025.5 1025.4 0.0
29/09:00pm 17.5 16.0 14.2 81 1.9 S 15 20 8 11 1025.5 1025.4 0.0
29/08:30pm 18.5 16.3 14.8 79 2.2 SSE 20 28 11 15 1025.5 1025.4 0.0
29/08:00pm 18.5 16.3 14.8 79 2.1 SE 20 28 11 15 1025.3 1025.2 0.0
29/07:30pm 19.1 16.1 14.8 76 2.5 SE 24 33 13 18 1025.0 1024.9 0.0
29/07:00pm 19.1 15.7 14.8 76 2.5 SE 26 35 14 19 1024.6 1024.5 0.0
29/06:30pm 19.0 14.8 14.7 76 2.5 SE 30 44 16 24 1024.3 1024.2 0.0
29/06:00pm 19.4 15.6 14.6 74 2.8 ESE 28 39 15 21 1023.9 1023.8 0.0
29/05:30pm 19.9 16.0 14.3 70 3.2 SE 28 43 15 23 1023.7 1023.6 0.0
29/05:00pm 20.4 15.6 14.5 69 3.4 ESE 33 46 18 25 1023.5 1023.4 0.0
29/04:30pm 21.0 16.2 13.9 64 4.1 ESE 32 46 17 25 1023.4 1023.3 0.0
29/04:00pm 21.9 16.9 14.0 61 4.6 ESE 33 46 18 25 1023.2 1023.1 0.0
29/03:30pm 22.0 15.7 13.4 58 5.0 SE 39 50 21 27 1023.1 1023.0 0.0
29/03:00pm 23.0 17.5 13.5 55 5.5 SE 35 46 19 25 1023.2 1023.1 0.0
29/02:32pm 23.0 17.3 12.9 53 5.8 SE 35 54 19 29 1023.3 1023.2 0.0
29/02:30pm 22.8 16.9 12.4 52 5.9 SE 35 48 19 26 1023.3 1023.2 0.0
29/02:08pm 22.7 16.5 12.6 53 5.8 ESE 37 56 20 30 1023.6 1023.5 0.0
29/02:00pm 22.3 15.5 12.0 52 5.8 SE 39 56 21 30 1023.6 1023.5 0.0
29/01:30pm 22.7 16.4 12.3 52 5.9 ESE 37 50 20 27 1023.9 1023.8 0.0
29/01:07pm 22.3 15.6 12.3 53 5.7 ESE 39 57 21 31 1024.1 1024.0 0.0
29/01:00pm 22.6 16.0 12.5 53 5.7 ESE 39 56 21 30 1024.2 1024.1 0.0
29/12:36pm 22.8 16.4 12.1 51 6.1 ESE 37 56 20 30 1024.6 1024.5 0.0
29/12:30pm 22.6 15.9 12.3 52 5.8 SE 39 54 21 29 1024.8 1024.7 0.0
29/12:00pm 22.6 15.5 12.3 52 5.8 ESE 41 59 22 32 1025.2 1025.1 0.0
29/11:40am 23.5 17.3 12.8 51 6.1 SE 37 57 20 31 1025.5 1025.4 0.0
29/11:30am 23.0 16.4 12.6 52 5.9 SE 39 54 21 29 1025.6 1025.5 0.0
29/11:04am 22.9 16.0 12.8 53 5.8 SE 41 59 22 32 1025.8 1025.7 0.0
29/11:00am 23.7 17.0 13.3 52 6.0 SE 41 54 22 29 1025.9 1025.8 0.0
29/10:34am 23.0 16.7 13.5 55 5.5 ESE 39 57 21 31 1026.0 1025.9 0.0
29/10:30am 22.4 15.5 12.9 55 5.4 ESE 41 57 22 31 1026.0 1025.9 0.0
29/10:02am 22.1 14.9 13.2 57 5.1 SE 43 61 23 33 1026.0 1025.9 0.0
29/10:00am 22.3 15.6 13.4 57 5.1 SE 41 54 22 29 1026.0 1025.9 0.0
29/09:30am 21.1 15.0 13.0 60 4.6 SE 37 52 20 28 1026.2 1026.1 0.0
29/09:14am 22.2 17.8 14.1 60 4.7 SE 30 48 16 26 1026.2 1026.1 0.0
29/09:00am 21.6 17.1 13.8 61 4.5 SE 30 41 16 22 1026.1 1026.0 0.0
29/08:30am 20.5 16.2 13.2 63 4.2 SSE 28 43 15 23 1025.9 1025.8 0.0
29/08:00am 19.3 16.1 13.0 67 3.5 SE 22 32 12 17 1025.8 1025.7 0.0
29/07:30am 18.5 16.0 13.4 72 2.9 SSE 19 26 10 14 1025.5 1025.4 0.0
29/07:00am 18.1 15.4 13.4 74 2.6 SSE 20 30 11 16 1025.1 1025.0 0.0
29/06:30am 18.1 15.4 13.6 75 2.6 SSE 20 28 11 15 1025.1 1025.0 0.0
29/06:00am 17.8 14.7 13.5 76 2.4 SSE 22 32 12 17 1024.9 1024.8 0.0
29/05:30am 18.0 14.9 13.5 75 2.5 SSE 22 32 12 17 1024.5 1024.4 0.0
29/05:00am 18.1 15.3 13.2 73 2.7 SSE 20 30 11 16 1024.4 1024.3 0.0
29/04:30am 18.2 14.2 13.1 72 2.9 SSE 26 37 14 20 1024.1 1024.0 0.0
29/04:00am 18.4 14.4 13.0 71 3.0 SSE 26 35 14 19 1023.9 1023.8 0.0
29/03:30am 18.1 14.8 12.8 71 3.0 SSE 22 30 12 16 1024.0 1023.9 0.0
29/03:00am 17.7 15.3 12.8 73 2.7 SSE 17 24 9 13 1024.1 1024.0 0.0
29/02:30am 17.1 15.4 12.4 74 2.6 S 13 17 7 9 1024.4 1024.3 0.0
29/02:00am 16.9 14.7 12.0 73 2.7 S 15 19 8 10 1024.5 1024.4 0.0
29/01:30am 16.7 13.9 11.2 70 3.0 S 17 20 9 11 1024.8 1024.7 0.0
29/01:00am 16.8 14.6 10.9 68 3.1 SSE 13 20 7 11 1025.2 1025.1 0.0
29/12:30am 16.7 14.5 10.8 68 3.2 SSE 13 17 7 9 1025.3 1025.2 0.0
29/12:00am 15.9 13.9 10.0 68 3.1 S 11 15 6 8 1025.5 1025.4 0.0
 
Date/Time
EST
Temp
°C
App
Temp
°C
Dew
Point
Rel
Hum
%
Delta-T
°C
Wind Press
QNH
hPa
Press
MSL
hPa
Rain
since 9 am
mm
Dir
 
Spd
km/h
Gust
km/h
Spd
kts
Gust
kts
28/11:30pm 15.8 13.7 9.7 67 3.2 SSE 11 13 6 7 1025.7 1025.6 0.0
28/11:00pm 15.6 13.4 9.3 66 3.2 S 11 15 6 8 1025.9 1025.8 0.0
28/10:30pm 15.1 13.2 9.0 67 3.1 S 9 11 5 6 1026.0 1025.9 0.0
28/10:00pm 16.4 14.1 9.1 62 3.7 S 11 13 6 7 1026.1 1026.0 0.0
28/09:30pm 17.1 14.9 9.3 60 4.1 SSE 11 13 6 7 1026.2 1026.1 0.0
28/09:00pm 18.2 14.6 9.8 58 4.4 SE 19 24 10 13 1026.0 1025.9 0.0
28/08:30pm 18.0 15.5 10.9 63 3.8 SE 15 20 8 11 1026.0 1025.9 0.0
28/08:00pm 18.1 16.1 11.4 65 3.6 SE 13 20 7 11 1025.8 1025.7 0.0
28/07:30pm 19.0 15.3 11.6 62 4.1 ESE 22 32 12 17 1025.6 1025.5 0.0
28/07:00pm 18.8 15.1 11.6 63 3.9 ESE 22 33 12 18 1025.3 1025.2 0.0
28/06:30pm 18.8 15.7 12.1 65 3.7 ESE 20 30 11 16 1024.9 1024.8 0.0
28/06:00pm 18.8 14.8 11.9 64 3.8 ESE 24 35 13 19 1024.7 1024.6 0.0
28/05:30pm 18.9 15.3 11.7 63 4.0 ESE 22 39 12 21 1024.2 1024.1 0.0
28/05:00pm 19.3 14.5 11.8 62 4.1 ESE 28 35 15 19 1023.8 1023.7 0.0
28/04:30pm 19.8 14.3 11.8 60 4.4 E 32 43 17 23 1023.3 1023.2 0.0
28/04:00pm 20.3 15.7 12.3 60 4.5 ESE 28 37 15 20 1022.9 1022.8 0.0
28/03:30pm 20.9 16.0 12.6 59 4.7 E 30 43 16 23 1022.9 1022.8 0.0
28/03:00pm 22.2 17.4 13.0 56 5.3 E 30 41 16 22 1022.8 1022.7 0.0
28/02:30pm 22.8 17.9 12.7 53 5.8 ESE 30 44 16 24 1022.8 1022.7 0.0
28/02:00pm 23.1 18.1 10.9 46 6.7 E 28 37 15 20 1022.9 1022.8 0.0
28/01:30pm 23.6 18.8 10.3 43 7.3 ESE 26 37 14 20 1023.2 1023.1 0.0
28/01:00pm 23.4 17.9 9.0 40 7.7 ESE 28 39 15 21 1023.6 1023.5 0.0
28/12:30pm 23.6 17.7 9.2 40 7.8 ESE 30 41 16 22 1023.9 1023.8 0.0
28/12:00pm 23.5 18.0 9.1 40 7.7 ESE 28 39 15 21 1024.3 1024.2 0.0
28/11:30am 23.1 18.4 10.5 45 6.9 ESE 26 37 14 20 1024.8 1024.7 0.0
28/11:00am 23.0 17.1 10.4 45 6.9 ESE 32 44 17 24 1025.1 1025.0 0.0
28/10:30am 22.3 16.2 10.5 47 6.5 ESE 33 46 18 25 1025.4 1025.3 0.0
28/10:00am 22.6 17.6 9.7 44 7.0 ESE 26 39 14 21 1025.5 1025.4 0.0
28/09:30am 22.1 18.3 12.4 54 5.5 SE 24 35 13 19 1025.2 1025.1 0.0
28/09:00am 22.1 18.5 12.9 56 5.2 SE 24 33 13 18 1024.9 1024.8 0.2
28/08:30am 21.3 18.1 13.0 59 4.7 SSE 22 32 12 17 1024.6 1024.5 0.2
28/08:00am 21.2 19.0 14.4 65 4.0 SSE 19 26 10 14 1024.3 1024.2 0.2
28/07:30am 20.6 19.0 13.8 65 3.9 SE 15 20 8 11 1024.0 1023.9 0.2
28/07:00am 20.3 18.4 14.2 68 3.5 SE 17 22 9 12 1023.6 1023.5 0.2
28/06:30am 20.3 18.2 13.7 66 3.8 SE 17 24 9 13 1023.3 1023.2 0.2
28/06:00am 20.4 18.0 13.8 66 3.8 SE 19 28 10 15 1022.9 1022.8 0.2
28/05:30am 20.3 18.5 14.4 69 3.4 SSE 17 24 9 13 1022.7 1022.6 0.2
28/05:00am 20.2 18.8 15.6 75 2.7 SSE 17 24 9 13 1022.6 1022.5 0.2
28/04:30am 20.1 20.1 17.1 83 1.8 SSE 13 17 7 9 1022.7 1022.6 0.2
28/04:00am 20.2 19.1 17.2 83 1.8 SE 19 30 10 16 1022.7 1022.6 0.2
28/03:30am 20.2 19.3 17.8 86 1.5 SE 19 26 10 14 1022.7 1022.6 0.2
28/03:12am 20.3 19.4 18.1 87 1.4 SE 20 28 11 15 1022.8 1022.7 0.2
28/03:00am 20.4 19.7 18.2 87 1.4 SE 19 26 10 14 1022.9 1022.8 0.2
28/02:48am 20.5 20.3 18.4 88 1.3 SE 17 22 9 12 1023.0 1022.9 0.2
28/02:30am 20.2 21.1 18.3 89 1.2 SSE 11 17 6 9 1022.9 1022.8 0.2
28/02:00am 20.2 20.3 18.3 89 1.2 SE 15 22 8 12 1023.0 1022.9 0.2
28/01:30am 20.1 21.2 18.0 88 1.3 SSE 9 13 5 7 1023.1 1023.0 0.2
28/01:00am 20.3 21.7 18.6 90 1.1 SSE 9 13 5 7 1023.3 1023.2 0.2
28/12:30am 19.2 20.9 18.5 96 0.4 SE 7 11 4 6 1023.3 1023.2 0.2
28/12:00am 18.3 19.7 17.7 96 0.4 S 7 7 4 4 1023.4 1023.3 0.2
 
Date/Time
EST
Temp
°C
App
Temp
°C
Dew
Point
Rel
Hum
%
Delta-T
°C
Wind Press
QNH
hPa
Press
MSL
hPa
Rain
since 9 am
mm
Dir
 
Spd
km/h
Gust
km/h
Spd
kts
Gust
kts
27/11:30pm 17.8 19.1 17.0 95 0.5 S 6 7 3 4 1023.6 1023.5 0.2
27/11:00pm 18.1 19.4 17.5 96 0.4 S 7 9 4 5 1023.7 1023.6 0.2
27/10:30pm 18.0 19.1 17.2 95 0.5 SSW 7 9 4 5 1023.9 1023.8 0.2

Other Formats:

Comma delimited format used in spreadsheet applications
http://www.bom.gov.au/fwo/IDQ60801/IDQ60801.94365.axf

JavaScript Object Notation format (JSON) in row-major order
http://www.bom.gov.au/fwo/IDQ60801/IDQ60801.94365.json